sensor_id;sensor_type;location;lat;lon;timestamp;pressure;altitude;pressure_sealevel;temperature;humidity
73842;BME280;62184;52.006;5.924;2023-09-30T00:01:10;101668.44;;;19.49;51.18
73842;BME280;62184;52.006;5.924;2023-09-30T00:03:37;101661.19;;;19.49;50.97
73842;BME280;62184;52.006;5.924;2023-09-30T00:06:04;101663.78;;;19.51;50.81
73842;BME280;62184;52.006;5.924;2023-09-30T00:08:33;101672.78;;;19.51;50.93
73842;BME280;62184;52.006;5.924;2023-09-30T00:10:59;101670.97;;;19.52;50.90
73842;BME280;62184;52.006;5.924;2023-09-30T00:13:26;101665.47;;;19.53;50.97
73842;BME280;62184;52.006;5.924;2023-09-30T00:15:52;101663.50;;;19.57;50.92
73842;BME280;62184;52.006;5.924;2023-09-30T00:18:19;101674.19;;;19.60;50.94
73842;BME280;62184;52.006;5.924;2023-09-30T00:20:45;101676.75;;;19.63;50.89
73842;BME280;62184;52.006;5.924;2023-09-30T00:23:12;101677.63;;;19.63;50.48
73842;BME280;62184;52.006;5.924;2023-09-30T00:25:41;101679.47;;;19.63;50.42
73842;BME280;62184;52.006;5.924;2023-09-30T00:28:07;101676.81;;;19.61;50.83
73842;BME280;62184;52.006;5.924;2023-09-30T00:30:34;101682.25;;;19.61;50.79
73842;BME280;62184;52.006;5.924;2023-09-30T00:33:00;101678.59;;;19.62;50.55
73842;BME280;62184;52.006;5.924;2023-09-30T00:35:26;101673.03;;;19.65;50.92
73842;BME280;62184;52.006;5.924;2023-09-30T00:37:53;101673.09;;;19.64;50.56
73842;BME280;62184;52.006;5.924;2023-09-30T00:40:19;101675.00;;;19.62;50.57
73842;BME280;62184;52.006;5.924;2023-09-30T00:42:48;101678.50;;;19.64;50.07
73842;BME280;62184;52.006;5.924;2023-09-30T00:45:15;101682.97;;;19.65;50.32
73842;BME280;62184;52.006;5.924;2023-09-30T00:47:41;101685.97;;;19.59;49.99
73842;BME280;62184;52.006;5.924;2023-09-30T00:50:08;101683.56;;;19.53;50.89
73842;BME280;62184;52.006;5.924;2023-09-30T00:52:36;101694.66;;;19.48;50.67
73842;BME280;62184;52.006;5.924;2023-09-30T00:55:05;101692.13;;;19.43;50.76
73842;BME280;62184;52.006;5.924;2023-09-30T00:57:34;101702.03;;;19.44;50.83
73842;BME280;62184;52.006;5.924;2023-09-30T01:00:06;101702.19;;;19.41;50.70
73842;BME280;62184;52.006;5.924;2023-09-30T01:02:33;101706.81;;;19.39;50.73
73842;BME280;62184;52.006;5.924;2023-09-30T01:05:01;101718.53;;;19.40;50.76
73842;BME280;62184;52.006;5.924;2023-09-30T01:07:27;101713.31;;;19.35;50.97
73842;BME280;62184;52.006;5.924;2023-09-30T01:09:54;101715.34;;;19.30;51.01
73842;BME280;62184;52.006;5.924;2023-09-30T01:12:20;101721.03;;;19.24;51.01
73842;BME280;62184;52.006;5.924;2023-09-30T01:14:47;101705.94;;;19.19;51.28
73842;BME280;62184;52.006;5.924;2023-09-30T01:17:16;101705.88;;;19.20;51.32
73842;BME280;62184;52.006;5.924;2023-09-30T01:19:42;101703.22;;;19.19;51.19
73842;BME280;62184;52.006;5.924;2023-09-30T01:22:11;101711.34;;;19.19;51.31
73842;BME280;62184;52.006;5.924;2023-09-30T01:24:39;101710.47;;;19.18;51.33
73842;BME280;62184;52.006;5.924;2023-09-30T01:27:06;101709.69;;;19.16;50.96
73842;BME280;62184;52.006;5.924;2023-09-30T01:29:32;101705.22;;;19.15;51.20
73842;BME280;62184;52.006;5.924;2023-09-30T01:31:58;101714.38;;;19.13;51.47
73842;BME280;62184;52.006;5.924;2023-09-30T01:34:25;101709.00;;;19.11;51.47
73842;BME280;62184;52.006;5.924;2023-09-30T01:36:51;101709.16;;;19.08;51.49
73842;BME280;62184;52.006;5.924;2023-09-30T01:39:20;101730.16;;;19.03;51.25
73842;BME280;62184;52.006;5.924;2023-09-30T01:41:47;101737.56;;;18.99;51.49
73842;BME280;62184;52.006;5.924;2023-09-30T01:44:13;101738.56;;;18.97;51.57
73842;BME280;62184;52.006;5.924;2023-09-30T01:46:40;101739.44;;;18.97;51.62
73842;BME280;62184;52.006;5.924;2023-09-30T01:49:06;101727.72;;;18.97;52.03
73842;BME280;62184;52.006;5.924;2023-09-30T01:51:33;101732.25;;;18.96;51.98
73842;BME280;62184;52.006;5.924;2023-09-30T01:53:59;101724.22;;;18.95;51.76
73842;BME280;62184;52.006;5.924;2023-09-30T01:56:30;101726.91;;;18.95;52.20
73842;BME280;62184;52.006;5.924;2023-09-30T01:58:56;101720.69;;;18.93;51.92
73842;BME280;62184;52.006;5.924;2023-09-30T02:01:23;101722.44;;;18.94;52.25
73842;BME280;62184;52.006;5.924;2023-09-30T02:03:49;101724.13;;;18.96;52.04
73842;BME280;62184;52.006;5.924;2023-09-30T02:06:16;101715.00;;;18.99;52.11
73842;BME280;62184;52.006;5.924;2023-09-30T02:08:42;101720.25;;;19.02;52.40
73842;BME280;62184;52.006;5.924;2023-09-30T02:11:09;101712.00;;;19.05;52.26
73842;BME280;62184;52.006;5.924;2023-09-30T02:13:38;101707.31;;;19.08;51.77
73842;BME280;62184;52.006;5.924;2023-09-30T02:16:04;101698.34;;;19.08;51.74
73842;BME280;62184;52.006;5.924;2023-09-30T02:18:30;101704.75;;;19.05;52.05
73842;BME280;62184;52.006;5.924;2023-09-30T02:20:57;101708.28;;;19.07;51.56
73842;BME280;62184;52.006;5.924;2023-09-30T02:23:23;101711.78;;;19.09;51.57
73842;BME280;62184;52.006;5.924;2023-09-30T02:25:50;101718.25;;;19.07;51.54
73842;BME280;62184;52.006;5.924;2023-09-30T02:28:16;101725.56;;;19.05;51.68
73842;BME280;62184;52.006;5.924;2023-09-30T02:30:45;101732.03;;;19.01;51.92
73842;BME280;62184;52.006;5.924;2023-09-30T02:33:12;101733.16;;;18.97;51.97
73842;BME280;62184;52.006;5.924;2023-09-30T02:35:43;101722.38;;;18.95;51.83
73842;BME280;62184;52.006;5.924;2023-09-30T02:38:10;101719.66;;;18.95;51.95
73842;BME280;62184;52.006;5.924;2023-09-30T02:40:36;101721.50;;;18.95;52.28
73842;BME280;62184;52.006;5.924;2023-09-30T02:43:03;101733.28;;;18.94;52.31
73842;BME280;62184;52.006;5.924;2023-09-30T02:45:29;101728.63;;;18.97;52.18
73842;BME280;62184;52.006;5.924;2023-09-30T02:47:59;101721.31;;;18.99;52.63
73842;BME280;62184;52.006;5.924;2023-09-30T02:50:26;101725.69;;;19.02;52.69
73842;BME280;62184;52.006;5.924;2023-09-30T02:52:52;101715.66;;;19.04;52.86
73842;BME280;62184;52.006;5.924;2023-09-30T02:55:19;101701.06;;;19.08;52.61
73842;BME280;62184;52.006;5.924;2023-09-30T02:57:45;101705.47;;;19.09;52.49
73842;BME280;62184;52.006;5.924;2023-09-30T03:00:12;101705.47;;;19.09;52.59
73842;BME280;62184;52.006;5.924;2023-09-30T03:02:39;101703.59;;;19.11;52.53
73842;BME280;62184;52.006;5.924;2023-09-30T03:05:09;101707.94;;;19.15;52.37
73842;BME280;62184;52.006;5.924;2023-09-30T03:07:35;101718.59;;;19.18;52.23
73842;BME280;62184;52.006;5.924;2023-09-30T03:10:02;101707.69;;;19.20;52.72
73842;BME280;62184;52.006;5.924;2023-09-30T03:12:28;101704.03;;;19.21;52.41
73842;BME280;62184;52.006;5.924;2023-09-30T03:14:55;101706.75;;;19.21;52.12
73842;BME280;62184;52.006;5.924;2023-09-30T03:17:21;101700.47;;;19.20;52.17
73842;BME280;62184;52.006;5.924;2023-09-30T03:19:48;101713.06;;;19.21;52.63
73842;BME280;62184;52.006;5.924;2023-09-30T03:22:17;101712.09;;;19.22;52.15
73842;BME280;62184;52.006;5.924;2023-09-30T03:24:43;101707.34;;;19.27;51.91
73842;BME280;62184;52.006;5.924;2023-09-30T03:27:10;101720.63;;;19.33;51.85
73842;BME280;62184;52.006;5.924;2023-09-30T03:29:36;101716.00;;;19.35;51.83
73842;BME280;62184;52.006;5.924;2023-09-30T03:32:03;101706.19;;;19.33;52.07
73842;BME280;62184;52.006;5.924;2023-09-30T03:34:29;101697.06;;;19.35;51.97
73842;BME280;62184;52.006;5.924;2023-09-30T03:36:56;101701.66;;;19.33;51.91
73842;BME280;62184;52.006;5.924;2023-09-30T03:39:25;101699.97;;;19.31;51.86
73842;BME280;62184;52.006;5.924;2023-09-30T03:41:51;101701.84;;;19.29;51.90
73842;BME280;62184;52.006;5.924;2023-09-30T03:44:18;101695.50;;;19.30;51.99
73842;BME280;62184;52.006;5.924;2023-09-30T03:46:44;101689.25;;;19.28;51.92
73842;BME280;62184;52.006;5.924;2023-09-30T03:49:11;101688.38;;;19.27;52.23
73842;BME280;62184;52.006;5.924;2023-09-30T03:51:37;101686.72;;;19.25;52.30
73842;BME280;62184;52.006;5.924;2023-09-30T03:54:04;101686.84;;;19.22;52.39
73842;BME280;62184;52.006;5.924;2023-09-30T03:56:33;101684.22;;;19.20;52.23
73842;BME280;62184;52.006;5.924;2023-09-30T03:59:00;101695.03;;;19.20;52.23
73842;BME280;62184;52.006;5.924;2023-09-30T04:01:26;101705.81;;;19.22;52.31
73842;BME280;62184;52.006;5.924;2023-09-30T04:03:53;101708.28;;;19.26;52.35
73842;BME280;62184;52.006;5.924;2023-09-30T04:06:19;101699.06;;;19.30;52.23
73842;BME280;62184;52.006;5.924;2023-09-30T04:08:46;101690.00;;;19.31;52.33
73842;BME280;62184;52.006;5.924;2023-09-30T04:11:13;101698.13;;;19.31;51.79
73842;BME280;62184;52.006;5.924;2023-09-30T04:13:42;101699.88;;;19.32;51.88
73842;BME280;62184;52.006;5.924;2023-09-30T04:16:08;101703.47;;;19.33;51.83
73842;BME280;62184;52.006;5.924;2023-09-30T04:18:35;101715.34;;;19.30;51.83
73842;BME280;62184;52.006;5.924;2023-09-30T04:21:01;101708.97;;;19.31;51.67
73842;BME280;62184;52.006;5.924;2023-09-30T04:23:28;101717.84;;;19.35;51.75
73842;BME280;62184;52.006;5.924;2023-09-30T04:25:54;101714.19;;;19.36;51.71
73842;BME280;62184;52.006;5.924;2023-09-30T04:28:21;101726.91;;;19.34;51.68
73842;BME280;62184;52.006;5.924;2023-09-30T04:30:50;101717.03;;;19.33;51.84
73842;BME280;62184;52.006;5.924;2023-09-30T04:33:16;101712.41;;;19.35;51.99
73842;BME280;62184;52.006;5.924;2023-09-30T04:35:43;101724.41;;;19.29;51.91
73842;BME280;62184;52.006;5.924;2023-09-30T04:38:10;101716.28;;;19.29;51.86
73842;BME280;62184;52.006;5.924;2023-09-30T04:40:36;101710.72;;;19.32;51.94
73842;BME280;62184;52.006;5.924;2023-09-30T04:43:03;101712.69;;;19.29;51.61
73842;BME280;62184;52.006;5.924;2023-09-30T04:45:29;101729.00;;;19.27;51.71
73842;BME280;62184;52.006;5.924;2023-09-30T04:47:58;101720.06;;;19.25;51.97
73842;BME280;62184;52.006;5.924;2023-09-30T04:50:25;101728.28;;;19.24;52.29
73842;BME280;62184;52.006;5.924;2023-09-30T04:52:51;101720.28;;;19.21;52.35
73842;BME280;62184;52.006;5.924;2023-09-30T04:55:18;101724.97;;;19.17;52.07
73842;BME280;62184;52.006;5.924;2023-09-30T04:57:45;101724.97;;;19.17;52.57
73842;BME280;62184;52.006;5.924;2023-09-30T05:00:13;101721.31;;;19.18;51.91
73842;BME280;62184;52.006;5.924;2023-09-30T05:02:41;101724.84;;;19.20;52.19
73842;BME280;62184;52.006;5.924;2023-09-30T05:05:10;101726.47;;;19.24;52.25
73842;BME280;62184;52.006;5.924;2023-09-30T05:07:37;101733.72;;;19.24;52.10
73842;BME280;62184;52.006;5.924;2023-09-30T05:10:04;101730.91;;;19.25;52.04
73842;BME280;62184;52.006;5.924;2023-09-30T05:12:31;101730.19;;;19.22;52.46
73842;BME280;62184;52.006;5.924;2023-09-30T05:14:58;101743.78;;;19.20;52.20
73842;BME280;62184;52.006;5.924;2023-09-30T05:17:24;101734.59;;;19.24;52.32
73842;BME280;62184;52.006;5.924;2023-09-30T05:19:51;101749.00;;;19.25;52.44
73842;BME280;62184;52.006;5.924;2023-09-30T05:22:20;101742.63;;;19.26;52.28
73842;BME280;62184;52.006;5.924;2023-09-30T05:24:46;101755.38;;;19.24;52.08
73842;BME280;62184;52.006;5.924;2023-09-30T05:27:13;101750.91;;;19.23;52.61
73842;BME280;62184;52.006;5.924;2023-09-30T05:29:39;101746.50;;;19.20;52.58
73842;BME280;62184;52.006;5.924;2023-09-30T05:32:05;101734.72;;;19.21;52.41
73842;BME280;62184;52.006;5.924;2023-09-30T05:34:32;101751.97;;;19.19;52.27
73842;BME280;62184;52.006;5.924;2023-09-30T05:36:58;101745.03;;;19.13;52.69
73842;BME280;62184;52.006;5.924;2023-09-30T05:39:27;101740.69;;;19.09;52.57
73842;BME280;62184;52.006;5.924;2023-09-30T05:41:54;101741.56;;;19.09;52.66
73842;BME280;62184;52.006;5.924;2023-09-30T05:44:20;101747.94;;;19.08;52.28
73842;BME280;62184;52.006;5.924;2023-09-30T05:46:47;101744.44;;;19.06;52.39
73842;BME280;62184;52.006;5.924;2023-09-30T05:49:13;101741.94;;;19.02;52.95
73842;BME280;62184;52.006;5.924;2023-09-30T05:51:40;101757.44;;;18.98;53.00
73842;BME280;62184;52.006;5.924;2023-09-30T05:54:07;101754.81;;;18.97;53.08
73842;BME280;62184;52.006;5.924;2023-09-30T05:56:36;101754.75;;;18.98;52.74
73842;BME280;62184;52.006;5.924;2023-09-30T05:59:03;101754.69;;;19.00;52.79
73842;BME280;62184;52.006;5.924;2023-09-30T06:01:29;101753.88;;;18.98;52.73
73842;BME280;62184;52.006;5.924;2023-09-30T06:03:56;101755.53;;;19.00;53.09
73842;BME280;62184;52.006;5.924;2023-09-30T06:06:22;101756.28;;;19.04;52.55
73842;BME280;62184;52.006;5.924;2023-09-30T06:08:49;101758.16;;;19.02;53.00
73842;BME280;62184;52.006;5.924;2023-09-30T06:11:18;101757.22;;;19.03;53.07
73842;BME280;62184;52.006;5.924;2023-09-30T06:13:48;101755.47;;;19.02;53.05
73842;BME280;62184;52.006;5.924;2023-09-30T06:16:14;101757.28;;;19.01;53.24
73842;BME280;62184;52.006;5.924;2023-09-30T06:18:41;101753.63;;;19.02;53.21
73842;BME280;62184;52.006;5.924;2023-09-30T06:21:08;101751.81;;;19.03;52.95
73842;BME280;62184;52.006;5.924;2023-09-30T06:23:34;101752.69;;;19.03;53.07
73842;BME280;62184;52.006;5.924;2023-09-30T06:26:01;101756.88;;;19.11;52.78
73842;BME280;62184;52.006;5.924;2023-09-30T06:28:27;101756.75;;;19.14;53.32
73842;BME280;62184;52.006;5.924;2023-09-30T06:30:56;101752.94;;;19.18;53.30
73842;BME280;62184;52.006;5.924;2023-09-30T06:33:23;101753.63;;;19.23;53.09
73842;BME280;62184;52.006;5.924;2023-09-30T06:35:49;101762.47;;;19.26;53.42
73842;BME280;62184;52.006;5.924;2023-09-30T06:38:16;101766.81;;;19.30;53.41
73842;BME280;62184;52.006;5.924;2023-09-30T06:40:43;101766.75;;;19.32;53.23
73842;BME280;62184;52.006;5.924;2023-09-30T06:43:09;101764.84;;;19.34;53.16
73842;BME280;62184;52.006;5.924;2023-09-30T06:45:36;101760.25;;;19.36;53.30
73842;BME280;62184;52.006;5.924;2023-09-30T06:48:05;101774.75;;;19.35;53.13
73842;BME280;62184;52.006;5.924;2023-09-30T06:50:32;101778.25;;;19.37;53.42
73842;BME280;62184;52.006;5.924;2023-09-30T06:52:58;101794.44;;;19.38;53.65
73842;BME280;62184;52.006;5.924;2023-09-30T06:55:25;101798.88;;;19.41;53.61
73842;BME280;62184;52.006;5.924;2023-09-30T06:57:51;101795.34;;;19.39;53.75
73842;BME280;62184;52.006;5.924;2023-09-30T07:00:17;101788.97;;;19.40;53.25
73842;BME280;62184;52.006;5.924;2023-09-30T07:02:44;101791.63;;;19.41;53.83
73842;BME280;62184;52.006;5.924;2023-09-30T07:05:14;101797.97;;;19.40;53.99
73842;BME280;62184;52.006;5.924;2023-09-30T07:07:41;101804.13;;;19.44;53.53
73842;BME280;62184;52.006;5.924;2023-09-30T07:10:09;101802.88;;;19.51;53.85
73842;BME280;62184;52.006;5.924;2023-09-30T07:12:36;101808.97;;;19.56;53.51
73842;BME280;62184;52.006;5.924;2023-09-30T07:15:03;101813.28;;;19.60;53.30
73842;BME280;62184;52.006;5.924;2023-09-30T07:17:30;101808.47;;;19.67;53.38
73842;BME280;62184;52.006;5.924;2023-09-30T07:19:57;101812.66;;;19.74;53.44
73842;BME280;62184;52.006;5.924;2023-09-30T07:22:26;101825.09;;;19.78;53.48
73842;BME280;62184;52.006;5.924;2023-09-30T07:24:53;101823.78;;;19.87;53.48
73842;BME280;62184;52.006;5.924;2023-09-30T07:27:19;101823.66;;;19.90;53.15
73842;BME280;62184;52.006;5.924;2023-09-30T07:29:45;101832.44;;;19.95;53.18
73842;BME280;62184;52.006;5.924;2023-09-30T07:32:12;101835.81;;;20.00;53.29
73842;BME280;62184;52.006;5.924;2023-09-30T07:34:38;101832.88;;;20.04;53.13
73842;BME280;62184;52.006;5.924;2023-09-30T07:37:05;101838.72;;;20.14;53.22
73842;BME280;62184;52.006;5.924;2023-09-30T07:39:35;101835.94;;;20.15;53.24
73842;BME280;62184;52.006;5.924;2023-09-30T07:42:02;101837.44;;;20.23;53.22
73842;BME280;62184;52.006;5.924;2023-09-30T07:44:28;101845.84;;;20.35;52.84
73842;BME280;62184;52.006;5.924;2023-09-30T07:46:55;101852.06;;;20.37;52.98
73842;BME280;62184;52.006;5.924;2023-09-30T07:49:21;101843.53;;;20.45;53.14
73842;BME280;62184;52.006;5.924;2023-09-30T07:51:48;101851.00;;;20.58;52.48
73842;BME280;62184;52.006;5.924;2023-09-30T07:54:14;101853.00;;;20.72;52.30
73842;BME280;62184;52.006;5.924;2023-09-30T07:56:43;101851.59;;;20.82;52.68
73842;BME280;62184;52.006;5.924;2023-09-30T07:59:10;101858.47;;;20.89;52.09
73842;BME280;62184;52.006;5.924;2023-09-30T08:01:36;101861.69;;;20.98;52.22
73842;BME280;62184;52.006;5.924;2023-09-30T08:04:03;101852.88;;;21.10;51.89
73842;BME280;62184;52.006;5.924;2023-09-30T08:06:30;101865.75;;;21.23;51.59
73842;BME280;62184;52.006;5.924;2023-09-30T08:08:56;101868.06;;;21.31;51.92
73842;BME280;62184;52.006;5.924;2023-09-30T08:11:23;101863.91;;;21.41;51.35
73842;BME280;62184;52.006;5.924;2023-09-30T08:13:52;101868.50;;;21.56;51.48
73842;BME280;62184;52.006;5.924;2023-09-30T08:16:18;101860.09;;;21.61;51.47
73842;BME280;62184;52.006;5.924;2023-09-30T08:18:44;101853.25;;;21.69;51.25
73842;BME280;62184;52.006;5.924;2023-09-30T08:21:11;101852.09;;;21.75;50.81
73842;BME280;62184;52.006;5.924;2023-09-30T08:23:37;101843.00;;;21.92;50.61
73842;BME280;62184;52.006;5.924;2023-09-30T08:26:04;101845.81;;;22.06;50.81
73842;BME280;62184;52.006;5.924;2023-09-30T08:28:30;101845.72;;;22.23;50.21
73842;BME280;62184;52.006;5.924;2023-09-30T08:31:04;101844.75;;;22.40;50.11
73842;BME280;62184;52.006;5.924;2023-09-30T08:33:32;101840.19;;;22.56;49.61
73842;BME280;62184;52.006;5.924;2023-09-30T08:36:02;101835.75;;;22.69;49.67
73842;BME280;62184;52.006;5.924;2023-09-30T08:38:28;101838.56;;;22.83;49.22
73842;BME280;62184;52.006;5.924;2023-09-30T08:40:55;101834.28;;;22.94;49.04
73842;BME280;62184;52.006;5.924;2023-09-30T08:43:22;101835.78;;;22.99;48.67
73842;BME280;62184;52.006;5.924;2023-09-30T08:45:53;101840.94;;;23.04;48.25
73842;BME280;62184;52.006;5.924;2023-09-30T08:48:23;101844.34;;;23.07;48.21
73842;BME280;62184;52.006;5.924;2023-09-30T08:50:51;101846.59;;;23.15;48.09
73842;BME280;62184;52.006;5.924;2023-09-30T08:53:19;101838.94;;;23.22;47.58
73842;BME280;62184;52.006;5.924;2023-09-30T08:55:47;101840.53;;;23.26;47.64
73842;BME280;62184;52.006;5.924;2023-09-30T08:58:19;101845.03;;;23.41;47.56
73842;BME280;62184;52.006;5.924;2023-09-30T09:00:49;101860.13;;;23.61;47.25
73842;BME280;62184;52.006;5.924;2023-09-30T09:03:18;101871.72;;;23.78;47.23
73842;BME280;62184;52.006;5.924;2023-09-30T09:05:53;101854.41;;;23.93;46.81
73842;BME280;62184;52.006;5.924;2023-09-30T09:08:20;101842.50;;;24.09;46.40
73842;BME280;62184;52.006;5.924;2023-09-30T09:10:55;101839.72;;;24.23;46.58
73842;BME280;62184;52.006;5.924;2023-09-30T09:13:23;101846.53;;;24.30;45.97
73842;BME280;62184;52.006;5.924;2023-09-30T09:16:05;101838.78;;;24.37;45.36
73842;BME280;62184;52.006;5.924;2023-09-30T09:18:32;101837.31;;;24.45;45.80
73842;BME280;62184;52.006;5.924;2023-09-30T09:21:12;101841.88;;;24.59;44.98
73842;BME280;62184;52.006;5.924;2023-09-30T09:23:40;101840.59;;;24.64;44.88
73842;BME280;62184;52.006;5.924;2023-09-30T09:26:09;101843.66;;;24.73;44.82
73842;BME280;62184;52.006;5.924;2023-09-30T09:28:37;101859.88;;;24.88;44.89
73842;BME280;62184;52.006;5.924;2023-09-30T09:31:19;101863.91;;;25.10;44.50
73842;BME280;62184;52.006;5.924;2023-09-30T09:33:46;101859.56;;;25.32;44.14
73842;BME280;62184;52.006;5.924;2023-09-30T09:36:15;101872.94;;;25.50;43.94
73842;BME280;62184;52.006;5.924;2023-09-30T09:38:46;101875.91;;;25.59;43.52
73842;BME280;62184;52.006;5.924;2023-09-30T09:41:13;101885.28;;;25.80;43.14
73842;BME280;62184;52.006;5.924;2023-09-30T09:43:41;101895.28;;;25.94;43.20
73842;BME280;62184;52.006;5.924;2023-09-30T09:46:08;101897.00;;;25.95;42.81
73842;BME280;62184;52.006;5.924;2023-09-30T09:48:35;101885.19;;;26.07;42.70
73842;BME280;62184;52.006;5.924;2023-09-30T09:51:04;101884.28;;;26.19;42.40
73842;BME280;62184;52.006;5.924;2023-09-30T09:53:34;101883.56;;;26.29;42.18
73842;BME280;62184;52.006;5.924;2023-09-30T09:56:02;101883.72;;;26.27;41.34
73842;BME280;62184;52.006;5.924;2023-09-30T09:58:32;101875.06;;;26.20;41.85
73842;BME280;62184;52.006;5.924;2023-09-30T10:00:59;101890.59;;;26.20;42.11
73842;BME280;62184;52.006;5.924;2023-09-30T10:03:27;101881.84;;;26.28;41.95
73842;BME280;62184;52.006;5.924;2023-09-30T10:05:53;101895.72;;;26.37;41.43
73842;BME280;62184;52.006;5.924;2023-09-30T10:08:21;101897.16;;;26.43;40.77
73842;BME280;62184;52.006;5.924;2023-09-30T10:11:00;101886.47;;;26.51;40.87
73842;BME280;62184;52.006;5.924;2023-09-30T10:13:52;101892.22;;;26.72;41.16
73842;BME280;62184;52.006;5.924;2023-09-30T10:16:49;101902.16;;;26.85;40.68
73842;BME280;62184;52.006;5.924;2023-09-30T10:19:18;101913.84;;;26.87;40.78
73842;BME280;62184;52.006;5.924;2023-09-30T10:24:55;101904.06;;;27.20;40.50
73842;BME280;62184;52.006;5.924;2023-09-30T10:27:33;101897.28;;;27.37;40.13
73842;BME280;62184;52.006;5.924;2023-09-30T10:30:06;101883.09;;;27.54;39.73
73842;BME280;62184;52.006;5.924;2023-09-30T10:35:48;101868.28;;;27.79;38.72
73842;BME280;62184;52.006;5.924;2023-09-30T10:38:41;101867.53;;;27.77;38.35
73842;BME280;62184;52.006;5.924;2023-09-30T10:41:08;101865.09;;;27.72;38.10
73842;BME280;62184;52.006;5.924;2023-09-30T10:43:39;101866.28;;;27.81;38.30
73842;BME280;62184;52.006;5.924;2023-09-30T10:46:30;101867.50;;;27.88;37.78
73842;BME280;62184;52.006;5.924;2023-09-30T10:49:14;101866.78;;;27.86;37.72
73842;BME280;62184;52.006;5.924;2023-09-30T10:51:58;101864.84;;;27.64;37.34
73842;BME280;62184;52.006;5.924;2023-09-30T10:54:27;101852.53;;;27.69;38.25
73842;BME280;62184;52.006;5.924;2023-09-30T10:56:55;101844.06;;;27.95;37.66
73842;BME280;62184;52.006;5.924;2023-09-30T10:59:25;101856.50;;;28.32;36.82
73842;BME280;62184;52.006;5.924;2023-09-30T11:01:53;101838.59;;;28.60;36.65
73842;BME280;62184;52.006;5.924;2023-09-30T11:04:20;101854.38;;;28.79;36.32
73842;BME280;62184;52.006;5.924;2023-09-30T11:06:46;101851.16;;;29.06;34.66
73842;BME280;62184;52.006;5.924;2023-09-30T11:09:15;101855.25;;;29.11;34.51
73842;BME280;62184;52.006;5.924;2023-09-30T11:11:45;101844.31;;;29.00;33.93
73842;BME280;62184;52.006;5.924;2023-09-30T11:14:19;101846.72;;;28.94;34.54
73842;BME280;62184;52.006;5.924;2023-09-30T11:16:50;101857.84;;;28.81;34.20
73842;BME280;62184;52.006;5.924;2023-09-30T11:19:18;101847.72;;;28.61;34.01
73842;BME280;62184;52.006;5.924;2023-09-30T11:21:45;101859.50;;;28.40;34.50
73842;BME280;62184;52.006;5.924;2023-09-30T11:24:13;101856.13;;;28.15;34.99
73842;BME280;62184;52.006;5.924;2023-09-30T11:26:40;101853.66;;;28.00;35.38
73842;BME280;62184;52.006;5.924;2023-09-30T11:29:08;101862.91;;;27.88;34.90
73842;BME280;62184;52.006;5.924;2023-09-30T11:31:39;101855.41;;;27.79;35.25
73842;BME280;62184;52.006;5.924;2023-09-30T11:34:09;101851.81;;;27.79;35.55
73842;BME280;62184;52.006;5.924;2023-09-30T11:36:38;101857.16;;;27.80;35.34
73842;BME280;62184;52.006;5.924;2023-09-30T11:39:05;101847.16;;;27.79;34.90
73842;BME280;62184;52.006;5.924;2023-09-30T11:41:33;101841.69;;;27.79;35.43
73842;BME280;62184;52.006;5.924;2023-09-30T11:44:03;101842.19;;;27.95;35.10
73842;BME280;62184;52.006;5.924;2023-09-30T11:46:31;101828.06;;;28.00;34.32
73842;BME280;62184;52.006;5.924;2023-09-30T11:48:59;101824.31;;;28.12;34.17
73842;BME280;62184;52.006;5.924;2023-09-30T11:51:29;101824.53;;;28.42;33.15
73842;BME280;62184;52.006;5.924;2023-09-30T11:53:56;101824.13;;;28.47;32.60
73842;BME280;62184;52.006;5.924;2023-09-30T11:56:23;101825.50;;;28.53;32.29
73842;BME280;62184;52.006;5.924;2023-09-30T11:58:50;101821.00;;;28.52;31.64
73842;BME280;62184;52.006;5.924;2023-09-30T12:01:16;101815.00;;;28.47;32.62
73842;BME280;62184;52.006;5.924;2023-09-30T12:03:43;101811.66;;;28.43;31.94
73842;BME280;62184;52.006;5.924;2023-09-30T12:06:09;101818.91;;;28.44;32.62
73842;BME280;62184;52.006;5.924;2023-09-30T12:08:38;101824.28;;;28.46;32.55
73842;BME280;62184;52.006;5.924;2023-09-30T12:11:05;101822.75;;;28.53;32.42
73842;BME280;62184;52.006;5.924;2023-09-30T12:13:31;101828.38;;;28.51;32.13
73842;BME280;62184;52.006;5.924;2023-09-30T12:15:58;101840.00;;;28.43;32.59
73842;BME280;62184;52.006;5.924;2023-09-30T12:18:24;101823.63;;;28.53;31.88
73842;BME280;62184;52.006;5.924;2023-09-30T12:20:51;101827.47;;;28.62;31.63
73842;BME280;62184;52.006;5.924;2023-09-30T12:23:17;101809.09;;;28.62;31.98
73842;BME280;62184;52.006;5.924;2023-09-30T12:25:46;101818.47;;;28.60;31.84
73842;BME280;62184;52.006;5.924;2023-09-30T12:28:13;101807.44;;;28.71;31.75
73842;BME280;62184;52.006;5.924;2023-09-30T12:30:39;101813.06;;;28.90;30.87
73842;BME280;62184;52.006;5.924;2023-09-30T12:33:06;101815.78;;;29.01;30.88
73842;BME280;62184;52.006;5.924;2023-09-30T12:35:33;101803.69;;;29.13;29.95
73842;BME280;62184;52.006;5.924;2023-09-30T12:38:00;101799.69;;;29.17;30.20
73842;BME280;62184;52.006;5.924;2023-09-30T12:40:26;101793.31;;;29.17;29.57
73842;BME280;62184;52.006;5.924;2023-09-30T12:42:55;101785.50;;;29.22;29.66
73842;BME280;62184;52.006;5.924;2023-09-30T12:45:25;101789.94;;;29.34;30.21
73842;BME280;62184;52.006;5.924;2023-09-30T12:47:51;101780.72;;;29.45;29.81
73842;BME280;62184;52.006;5.924;2023-09-30T12:50:18;101780.53;;;29.37;29.38
73842;BME280;62184;52.006;5.924;2023-09-30T12:52:44;101772.34;;;29.26;29.66
73842;BME280;62184;52.006;5.924;2023-09-30T12:55:11;101782.06;;;29.30;29.39
73842;BME280;62184;52.006;5.924;2023-09-30T12:57:37;101775.28;;;29.34;29.21
73842;BME280;62184;52.006;5.924;2023-09-30T13:00:08;101775.47;;;29.42;29.16